createdAt,value
2018-04-25T00:00:16.680Z,14.60
2018-04-25T00:02:43.564Z,14.40
2018-04-25T00:05:10.411Z,14.40
2018-04-25T00:07:37.259Z,14.50
2018-04-25T00:10:04.144Z,14.60
2018-04-25T00:12:31.090Z,14.50
2018-04-25T00:14:57.950Z,14.50
2018-04-25T00:17:25.394Z,14.40
2018-04-25T00:19:52.228Z,14.40
2018-04-25T00:22:19.494Z,14.50
2018-04-25T00:24:46.744Z,14.40
2018-04-25T00:27:13.611Z,14.40
2018-04-25T00:29:40.856Z,14.40
2018-04-25T00:32:07.782Z,14.40
2018-04-25T00:34:34.741Z,14.50
2018-04-25T00:37:01.596Z,14.40
2018-04-25T00:39:28.556Z,14.20
2018-04-25T00:41:55.409Z,14.20
2018-04-25T00:44:22.254Z,14.00
2018-04-25T00:46:49.324Z,14.10
2018-04-25T00:49:16.188Z,14.10
2018-04-25T00:51:43.070Z,14.30
2018-04-25T00:54:10.003Z,14.30
2018-04-25T00:56:37.702Z,14.30
2018-04-25T00:59:04.571Z,14.30
2018-04-25T01:01:31.436Z,14.30
2018-04-25T01:03:58.300Z,14.30
2018-04-25T01:06:25.172Z,14.20
2018-04-25T01:08:52.008Z,14.00
2018-04-25T01:11:18.864Z,13.90
2018-04-25T01:13:45.737Z,13.90
2018-04-25T01:16:12.996Z,14.00
2018-04-25T01:18:42.720Z,14.00
2018-04-25T01:21:09.641Z,14.00
2018-04-25T01:23:36.489Z,13.90
2018-04-25T01:26:03.342Z,13.90
2018-04-25T01:31:26.934Z,14.00
2018-04-25T01:33:59.767Z,13.90
2018-04-25T01:36:29.072Z,13.90
2018-04-25T01:38:55.964Z,13.80
2018-04-25T01:41:22.817Z,13.70
2018-04-25T01:43:50.393Z,13.70
2018-04-25T01:46:24.049Z,13.60
2018-04-25T01:48:54.846Z,13.50
2018-04-25T01:51:33.640Z,13.50
2018-04-25T01:54:20.588Z,13.60
2018-04-25T01:56:59.375Z,13.50
2018-04-25T01:59:38.137Z,13.50
2018-04-25T02:02:04.931Z,13.40
2018-04-25T02:04:32.787Z,13.40
2018-04-25T02:06:59.636Z,13.40
2018-04-25T02:09:26.502Z,13.30
2018-04-25T02:11:53.364Z,13.20
2018-04-25T02:14:20.238Z,13.20
2018-04-25T02:16:48.521Z,13.30
2018-04-25T02:19:15.499Z,13.30
2018-04-25T02:21:42.340Z,13.40
2018-04-25T02:24:09.179Z,13.30
2018-04-25T02:26:36.109Z,13.40
2018-04-25T02:29:02.952Z,13.40
2018-04-25T02:31:29.804Z,13.30
2018-04-25T02:33:56.710Z,13.30
2018-04-25T02:36:23.561Z,13.20
2018-04-25T02:38:50.424Z,13.20
2018-04-25T02:41:17.710Z,13.10
2018-04-25T02:43:44.578Z,13.10
2018-04-25T02:46:11.525Z,13.00
2018-04-25T02:51:24.948Z,13.00
2018-04-25T02:53:51.862Z,12.90
2018-04-25T02:56:18.819Z,12.90
2018-04-25T02:58:45.666Z,13.00
2018-04-25T03:01:12.516Z,13.00
2018-04-25T03:03:39.497Z,13.00
2018-04-25T03:06:06.358Z,13.10
2018-04-25T03:08:33.212Z,13.00
2018-04-25T03:11:00.080Z,12.90
2018-04-25T03:13:26.946Z,12.80
2018-04-25T03:15:53.885Z,12.90
2018-04-25T03:18:22.372Z,12.80
2018-04-25T03:20:49.220Z,12.70
2018-04-25T03:23:16.088Z,12.80
2018-04-25T03:25:43.062Z,12.80
2018-04-25T03:28:09.903Z,12.90
2018-04-25T03:30:36.770Z,12.90
2018-04-25T03:33:03.637Z,12.90
2018-04-25T03:35:30.480Z,13.00
2018-04-25T03:37:57.365Z,12.90
2018-04-25T03:40:24.313Z,12.70
2018-04-25T03:42:51.171Z,12.80
2018-04-25T03:45:18.115Z,12.80
2018-04-25T03:47:44.988Z,12.80
2018-04-25T03:52:57.587Z,12.80
2018-04-25T03:55:24.833Z,12.70
2018-04-25T03:57:51.697Z,12.70
2018-04-25T04:00:18.540Z,12.70
2018-04-25T04:02:45.412Z,12.70
2018-04-25T04:05:12.261Z,12.70
2018-04-25T04:07:39.176Z,12.60
2018-04-25T04:10:08.291Z,12.50
2018-04-25T04:12:35.245Z,12.50
2018-04-25T04:15:02.120Z,12.40
2018-04-25T04:20:14.792Z,12.50
2018-04-25T04:22:41.656Z,12.40
2018-04-25T04:25:08.516Z,12.40
2018-04-25T04:27:35.379Z,12.40
2018-04-25T04:30:02.256Z,12.50
2018-04-25T04:32:29.532Z,12.50
2018-04-25T04:34:56.871Z,12.40
2018-04-25T04:37:23.799Z,12.40
2018-04-25T04:39:51.786Z,12.40
2018-04-25T04:42:18.844Z,12.50
2018-04-25T04:44:45.688Z,12.50
2018-04-25T04:47:12.645Z,12.60
2018-04-25T04:49:39.483Z,12.60
2018-04-25T04:52:06.337Z,12.70
2018-04-25T04:54:33.317Z,12.70
2018-04-25T04:57:00.223Z,12.70
2018-04-25T04:59:27.716Z,12.70
2018-04-25T05:01:54.598Z,12.70
2018-04-25T05:04:21.455Z,12.80
2018-04-25T05:06:48.327Z,12.80
2018-04-25T05:09:15.276Z,12.80
2018-04-25T05:11:42.112Z,12.90
2018-04-25T05:14:12.172Z,13.10
2018-04-25T05:16:39.032Z,13.20
2018-04-25T05:21:39.339Z,13.50
2018-04-25T05:24:06.251Z,13.60
2018-04-25T05:29:18.933Z,14.00
2018-04-25T05:31:47.127Z,14.00
2018-04-25T05:34:13.973Z,13.80
2018-04-25T05:36:40.927Z,13.60
2018-04-25T05:39:07.825Z,13.50
2018-04-25T05:41:34.721Z,13.50
2018-04-25T05:44:01.616Z,13.40
2018-04-25T05:46:28.504Z,13.50
2018-04-25T05:48:55.409Z,13.80
2018-04-25T05:51:22.260Z,14.10
2018-04-25T05:53:49.217Z,14.30
2018-04-25T05:56:16.095Z,14.50
2018-04-25T05:58:42.935Z,14.60
2018-04-25T06:01:09.814Z,14.70
2018-04-25T06:03:36.750Z,14.80
2018-04-25T06:06:03.606Z,14.90
2018-04-25T06:08:30.455Z,15.00
2018-04-25T06:10:57.346Z,14.90
2018-04-25T06:13:24.200Z,14.90
2018-04-25T06:15:51.077Z,14.60
2018-04-25T06:18:17.947Z,14.30
2018-04-25T06:20:44.851Z,14.20
2018-04-25T06:23:13.423Z,13.90
2018-04-25T06:25:40.716Z,13.90
2018-04-25T06:28:07.898Z,13.90
2018-04-25T06:30:34.849Z,14.10
2018-04-25T06:33:01.699Z,14.00
2018-04-25T06:35:28.566Z,14.00
2018-04-25T06:37:55.412Z,14.30
2018-04-25T06:40:22.359Z,14.60
2018-04-25T06:42:49.233Z,14.90
2018-04-25T06:45:16.176Z,15.10
2018-04-25T06:47:43.048Z,14.80
2018-04-25T06:50:10.048Z,14.90
2018-04-25T06:52:36.921Z,15.10
2018-04-25T06:55:04.230Z,15.50
2018-04-25T06:57:31.188Z,15.50
2018-04-25T06:59:58.136Z,15.60
2018-04-25T07:02:26.560Z,15.60
2018-04-25T07:04:53.431Z,15.30
2018-04-25T07:10:06.104Z,15.20
2018-04-25T07:12:33.833Z,15.50
2018-04-25T07:15:00.744Z,15.60
2018-04-25T07:17:28.046Z,15.50
2018-04-25T07:19:54.956Z,15.50
2018-04-25T07:22:21.767Z,15.80
2018-04-25T07:24:48.640Z,16.20
2018-04-25T07:27:15.480Z,16.60
2018-04-25T07:29:42.445Z,16.90
2018-04-25T07:32:09.306Z,16.90
2018-04-25T07:34:36.159Z,17.10
2018-04-25T07:37:03.096Z,17.40
2018-04-25T07:39:30.750Z,17.30
2018-04-25T07:41:59.404Z,17.30
2018-04-25T07:44:26.276Z,17.30
2018-04-25T07:49:38.878Z,17.10
2018-04-25T07:52:05.748Z,16.90
2018-04-25T07:54:33.997Z,17.00
2018-04-25T07:57:00.993Z,17.10
2018-04-25T07:59:29.618Z,17.40
2018-04-25T08:01:56.574Z,17.40
2018-04-25T08:04:23.532Z,17.50
2018-04-25T08:06:50.394Z,17.40
2018-04-25T08:09:19.781Z,17.60
2018-04-25T08:11:46.741Z,17.80
2018-04-25T08:14:25.825Z,18.20
2018-04-25T08:17:04.651Z,18.20
2018-04-25T08:19:39.395Z,18.10
2018-04-25T08:22:06.268Z,18.10
2018-04-25T08:24:33.130Z,18.10
2018-04-25T08:26:59.994Z,18.20
2018-04-25T08:29:27.469Z,18.30
2018-04-25T08:31:54.408Z,18.10
2018-04-25T08:34:21.308Z,17.80
2018-04-25T08:36:48.162Z,17.80
2018-04-25T08:39:17.073Z,18.20
2018-04-25T08:41:43.876Z,18.10
2018-04-25T08:44:10.745Z,18.20
2018-04-25T08:46:37.685Z,18.20
2018-04-25T08:49:04.536Z,18.20
2018-04-25T08:51:31.384Z,18.30
2018-04-25T08:53:58.260Z,18.40
2018-04-25T08:56:25.105Z,18.70
2018-04-25T08:58:52.071Z,18.90
2018-04-25T09:01:18.923Z,19.00
2018-04-25T09:03:45.798Z,19.20
2018-04-25T09:06:12.657Z,19.20
2018-04-25T09:08:39.547Z,19.30
2018-04-25T09:11:06.392Z,19.60
2018-04-25T09:13:33.335Z,19.70
2018-04-25T09:16:00.313Z,20.00
2018-04-25T09:18:27.336Z,20.10
2018-04-25T09:20:54.299Z,20.10
2018-04-25T09:23:21.152Z,19.50
2018-04-25T09:25:48.000Z,19.20
2018-04-25T09:28:14.908Z,19.00
2018-04-25T09:30:41.831Z,19.10
2018-04-25T09:33:08.777Z,19.10
2018-04-25T09:35:35.745Z,19.10
2018-04-25T09:38:02.716Z,19.30
2018-04-25T09:40:29.617Z,19.40
2018-04-25T09:42:56.867Z,19.70
2018-04-25T09:45:23.747Z,19.70
2018-04-25T09:47:50.695Z,19.70
2018-04-25T09:50:17.610Z,19.50
2018-04-25T09:55:30.501Z,19.30
2018-04-25T09:57:57.397Z,19.20
2018-04-25T10:00:24.232Z,19.20
2018-04-25T10:02:51.117Z,19.00
2018-04-25T10:05:18.421Z,18.60
2018-04-25T10:07:45.272Z,18.60
2018-04-25T10:10:12.179Z,18.60
2018-04-25T10:12:39.163Z,18.60
2018-04-25T10:15:06.411Z,18.70
2018-04-25T10:17:33.696Z,18.90
2018-04-25T10:20:00.677Z,18.90
2018-04-25T10:22:27.663Z,18.90
2018-04-25T10:24:54.540Z,18.70
2018-04-25T10:27:21.387Z,18.60
2018-04-25T10:29:48.296Z,18.60
2018-04-25T10:32:15.188Z,18.70
2018-04-25T10:34:42.028Z,18.90
2018-04-25T10:37:08.875Z,18.90
2018-04-25T10:39:47.537Z,18.80
2018-04-25T10:42:14.467Z,18.70
2018-04-25T10:44:42.488Z,18.60
2018-04-25T10:47:09.452Z,18.60
2018-04-25T10:52:22.496Z,18.80
2018-04-25T10:54:49.337Z,18.80
2018-04-25T10:57:16.233Z,18.90
2018-04-25T10:59:43.135Z,18.80
2018-04-25T11:02:10.437Z,18.80
2018-04-25T11:04:37.354Z,18.80
2018-04-25T11:07:04.432Z,18.50
2018-04-25T11:09:31.324Z,18.20
2018-04-25T11:11:58.243Z,18.10
2018-04-25T11:14:25.102Z,18.20
2018-04-25T11:16:51.976Z,18.20
2018-04-25T11:19:18.835Z,18.30
2018-04-25T11:21:45.791Z,18.50
2018-04-25T11:24:12.673Z,18.20
2018-04-25T11:26:39.640Z,18.10
2018-04-25T11:31:53.052Z,18.40
2018-04-25T11:34:20.309Z,18.90
2018-04-25T11:36:47.545Z,19.00
2018-04-25T11:39:14.400Z,19.00
2018-04-25T11:41:41.268Z,19.00
2018-04-25T11:44:08.178Z,19.10
2018-04-25T11:46:35.714Z,19.10
2018-04-25T11:49:02.596Z,19.10
2018-04-25T11:51:29.531Z,19.20
2018-04-25T11:53:56.788Z,19.10
2018-04-25T11:56:23.815Z,19.10
2018-04-25T11:58:50.656Z,18.90
2018-04-25T12:01:17.597Z,19.00
2018-04-25T12:03:44.869Z,19.60
2018-04-25T12:08:44.285Z,19.90
2018-04-25T12:11:11.162Z,19.80
2018-04-25T12:13:38.432Z,20.00
2018-04-25T12:16:05.671Z,20.10
2018-04-25T12:18:32.577Z,20.10
2018-04-25T12:20:59.459Z,20.10
2018-04-25T12:23:29.821Z,20.10
2018-04-25T12:25:56.741Z,20.10
2018-04-25T12:28:23.581Z,20.10
2018-04-25T12:30:50.462Z,20.10
2018-04-25T12:33:17.339Z,20.00
2018-04-25T12:35:44.356Z,20.00
2018-04-25T12:38:11.234Z,20.00
2018-04-25T12:40:38.113Z,20.00
2018-04-25T12:43:05.049Z,20.10
2018-04-25T12:45:31.897Z,20.10
2018-04-25T12:47:58.777Z,20.20
2018-04-25T12:50:25.632Z,19.80
2018-04-25T12:52:52.599Z,19.10
2018-04-25T12:55:19.651Z,18.80
2018-04-25T12:57:46.611Z,18.90
2018-04-25T13:00:13.563Z,19.00
2018-04-25T13:02:43.457Z,18.90
2018-04-25T13:05:10.759Z,18.40
2018-04-25T13:07:37.649Z,18.40
2018-04-25T13:10:04.576Z,18.00
2018-04-25T13:12:33.213Z,17.50
2018-04-25T13:15:00.119Z,17.30
2018-04-25T13:17:29.976Z,15.80
2018-04-25T13:19:59.137Z,15.80
2018-04-25T13:22:26.396Z,15.50
2018-04-25T13:24:53.709Z,15.80
2018-04-25T13:27:20.580Z,15.80
2018-04-25T13:29:47.632Z,16.30
2018-04-25T13:32:14.496Z,16.70
2018-04-25T13:37:27.616Z,17.30
2018-04-25T13:39:54.869Z,17.60
2018-04-25T13:42:22.147Z,17.80
2018-04-25T13:44:53.181Z,18.00
2018-04-25T13:47:22.196Z,18.00
2018-04-25T13:49:49.053Z,18.30
2018-04-25T13:52:15.939Z,18.00
2018-04-25T13:54:43.223Z,17.90
2018-04-25T13:57:10.118Z,17.90
2018-04-25T13:59:37.160Z,18.00
2018-04-25T14:02:04.021Z,18.20
2018-04-25T14:04:30.985Z,18.20
2018-04-25T14:06:57.958Z,18.10
2018-04-25T14:09:24.836Z,18.20
2018-04-25T14:11:52.105Z,18.40
2018-04-25T14:14:19.412Z,18.50
2018-04-25T14:16:51.902Z,18.50
2018-04-25T14:19:18.872Z,18.30
2018-04-25T14:21:45.827Z,18.20
2018-04-25T14:24:12.743Z,18.20
2018-04-25T14:26:39.983Z,18.00
2018-04-25T14:29:06.904Z,18.00
2018-04-25T14:31:35.924Z,18.00
2018-04-25T14:34:02.833Z,17.90
2018-04-25T14:36:30.104Z,18.10
2018-04-25T14:38:57.030Z,18.00
2018-04-25T14:41:23.952Z,17.90
2018-04-25T14:43:50.804Z,17.90
2018-04-25T14:46:17.762Z,17.90
2018-04-25T14:48:44.628Z,17.90
2018-04-25T14:51:11.496Z,17.90
2018-04-25T14:53:38.467Z,17.70
2018-04-25T14:56:05.309Z,17.70
2018-04-25T14:58:32.179Z,17.80
2018-04-25T15:00:59.227Z,17.70
2018-04-25T15:03:26.092Z,17.70
2018-04-25T15:05:53.059Z,17.80
2018-04-25T15:08:19.912Z,17.90
2018-04-25T15:10:46.774Z,17.80
2018-04-25T15:13:13.697Z,17.80
2018-04-25T15:15:40.535Z,17.90
2018-04-25T15:18:07.395Z,18.00
2018-04-25T15:20:34.643Z,18.10
2018-04-25T15:23:01.896Z,18.00
2018-04-25T15:25:28.923Z,18.00
2018-04-25T15:27:56.096Z,18.50
2018-04-25T15:30:23.217Z,18.50
2018-04-25T15:32:52.172Z,18.60
2018-04-25T15:35:19.096Z,18.50
2018-04-25T15:37:45.953Z,18.30
2018-04-25T15:40:12.820Z,18.10
2018-04-25T15:42:41.948Z,18.10
2018-04-25T15:45:23.788Z,18.20
2018-04-25T15:47:51.067Z,18.90
2018-04-25T15:50:17.937Z,18.90
2018-04-25T15:52:44.783Z,19.30
2018-04-25T15:55:12.035Z,19.00
2018-04-25T15:57:39.296Z,19.00
2018-04-25T16:00:06.204Z,19.00
2018-04-25T16:02:33.079Z,19.10
2018-04-25T16:05:00.012Z,19.30
2018-04-25T16:07:27.035Z,19.50
2018-04-25T16:09:55.958Z,19.40
2018-04-25T16:12:23.201Z,18.70
2018-04-25T16:14:50.108Z,18.70
2018-04-25T16:20:04.595Z,18.60
2018-04-25T16:22:31.863Z,17.90
2018-04-25T16:24:58.720Z,17.90
2018-04-25T16:29:59.115Z,17.70
2018-04-25T16:32:25.976Z,17.70
2018-04-25T16:34:52.835Z,17.80
2018-04-25T16:37:19.697Z,18.10
2018-04-25T16:39:46.541Z,18.50
2018-04-25T16:42:13.428Z,18.80
2018-04-25T16:44:40.356Z,19.00
2018-04-25T16:47:07.203Z,19.20
2018-04-25T16:49:34.076Z,19.30
2018-04-25T16:52:01.009Z,19.10
2018-04-25T16:54:28.006Z,18.70
2018-04-25T16:56:54.940Z,18.50
2018-04-25T16:59:21.900Z,18.30
2018-04-25T17:01:48.736Z,18.30
2018-04-25T17:04:15.613Z,18.30
2018-04-25T17:06:42.477Z,18.10
2018-04-25T17:09:09.333Z,18.10
2018-04-25T17:11:37.606Z,18.20
2018-04-25T17:14:04.457Z,18.10
2018-04-25T17:16:31.308Z,17.80
2018-04-25T17:18:58.150Z,17.30
2018-04-25T17:21:25.408Z,16.90
2018-04-25T17:23:52.679Z,17.00
2018-04-25T17:26:19.527Z,17.00
2018-04-25T17:28:46.929Z,17.40
2018-04-25T17:31:13.740Z,17.40
2018-04-25T17:33:40.656Z,17.50
2018-04-25T17:36:07.622Z,17.50
2018-04-25T17:44:06.276Z,17.50
2018-04-25T17:46:35.502Z,17.50
2018-04-25T17:51:58.764Z,17.40
2018-04-25T17:54:25.647Z,17.10
2018-04-25T17:56:52.659Z,16.80
2018-04-25T17:59:19.535Z,16.60
2018-04-25T18:01:46.370Z,16.50
2018-04-25T18:04:13.215Z,16.50
2018-04-25T18:06:40.523Z,16.90
2018-04-25T18:09:07.484Z,16.90
2018-04-25T18:11:34.402Z,17.40
2018-04-25T18:14:01.164Z,17.80
2018-04-25T18:16:28.434Z,17.40
2018-04-25T18:18:55.297Z,17.40
2018-04-25T18:21:22.170Z,17.00
2018-04-25T18:23:49.071Z,16.80
2018-04-25T18:26:15.926Z,16.60
2018-04-25T18:28:42.766Z,16.60
2018-04-25T18:31:09.619Z,16.50
2018-04-25T18:33:36.486Z,16.30
2018-04-25T18:36:03.382Z,16.20
2018-04-25T18:38:30.626Z,16.10
2018-04-25T18:40:57.508Z,16.10
2018-04-25T18:43:24.819Z,16.20
2018-04-25T18:45:51.681Z,16.20
2018-04-25T18:48:18.598Z,16.10
2018-04-25T18:50:45.855Z,16.10
2018-04-25T18:53:12.711Z,16.10
2018-04-25T18:55:39.989Z,16.00
2018-04-25T18:58:07.375Z,15.80
2018-04-25T19:00:34.233Z,15.80
2018-04-25T19:03:01.208Z,15.70
2018-04-25T19:05:28.162Z,15.50
2018-04-25T19:07:55.003Z,15.50
2018-04-25T19:10:22.034Z,15.50
2018-04-25T19:12:49.326Z,15.40
2018-04-25T19:15:16.264Z,15.40
2018-04-25T19:17:43.043Z,15.50
2018-04-25T19:20:09.929Z,15.60
2018-04-25T19:25:11.484Z,15.70
2018-04-25T19:27:38.344Z,15.80
2018-04-25T19:30:05.234Z,15.90
2018-04-25T19:32:32.182Z,16.20
2018-04-25T19:34:59.010Z,16.30
2018-04-25T19:37:25.891Z,16.30
2018-04-25T19:39:52.791Z,16.20
2018-04-25T19:42:19.707Z,16.10
2018-04-25T19:44:46.689Z,16.10
2018-04-25T19:47:13.519Z,16.00
2018-04-25T19:49:40.348Z,15.80
2018-04-25T19:52:07.670Z,15.70
2018-04-25T19:54:34.502Z,15.70
2018-04-25T19:57:01.371Z,15.80
2018-04-25T19:59:28.216Z,15.70
2018-04-25T20:01:55.363Z,15.70
2018-04-25T20:04:22.643Z,15.70
2018-04-25T20:06:49.490Z,15.70
2018-04-25T20:09:16.367Z,15.70
2018-04-25T20:11:43.239Z,15.60
2018-04-25T20:14:10.179Z,15.70
2018-04-25T20:16:37.020Z,15.60
2018-04-25T20:19:03.982Z,15.70
2018-04-25T20:21:30.867Z,15.60
2018-04-25T20:23:57.704Z,15.40
2018-04-25T20:26:24.620Z,15.30
2018-04-25T20:28:51.447Z,15.30
2018-04-25T20:31:18.295Z,15.20
2018-04-25T20:33:45.173Z,15.10
2018-04-25T20:36:12.087Z,14.90
2018-04-25T20:38:38.947Z,14.90
2018-04-25T20:41:05.947Z,15.10
2018-04-25T20:43:32.864Z,15.10
2018-04-25T20:45:59.707Z,15.20
2018-04-25T20:48:26.681Z,15.20
2018-04-25T20:50:53.575Z,15.20
2018-04-25T20:53:20.519Z,15.30
2018-04-25T20:55:47.443Z,15.30
2018-04-25T20:58:14.288Z,15.30
2018-04-25T21:00:41.647Z,15.20
2018-04-25T21:03:08.966Z,15.00
2018-04-25T21:05:35.818Z,15.00
2018-04-25T21:08:02.665Z,14.90
2018-04-25T21:10:29.523Z,14.80
2018-04-25T21:12:56.366Z,14.50
2018-04-25T21:15:23.232Z,14.10
2018-04-25T21:17:50.074Z,13.80
2018-04-25T21:20:16.947Z,13.60
2018-04-25T21:22:43.807Z,13.50
2018-04-25T21:25:10.677Z,13.40
2018-04-25T21:27:37.710Z,13.40
2018-04-25T21:30:04.979Z,13.40
2018-04-25T21:32:31.820Z,13.30
2018-04-25T21:34:59.082Z,13.30
2018-04-25T21:37:26.318Z,13.30
2018-04-25T21:39:53.170Z,13.30
2018-04-25T21:42:20.094Z,13.20
2018-04-25T21:44:46.935Z,13.40
2018-04-25T21:47:13.794Z,13.40
2018-04-25T21:49:40.635Z,13.60
2018-04-25T21:52:07.893Z,13.80
2018-04-25T21:54:35.130Z,13.80
2018-04-25T21:57:01.987Z,13.80
2018-04-25T21:59:28.903Z,13.70
2018-04-25T22:01:55.963Z,13.80
2018-04-25T22:04:22.822Z,13.80
2018-04-25T22:06:49.782Z,13.80
2018-04-25T22:09:16.648Z,13.80
2018-04-25T22:11:43.611Z,13.90
2018-04-25T22:14:10.563Z,13.90
2018-04-25T22:16:37.423Z,13.90
2018-04-25T22:19:04.294Z,13.90
2018-04-25T22:21:31.230Z,13.80
2018-04-25T22:23:58.063Z,13.80
2018-04-25T22:26:25.355Z,13.80
2018-04-25T22:28:52.232Z,13.70
2018-04-25T22:31:19.099Z,13.60
2018-04-25T22:33:45.943Z,13.60
2018-04-25T22:36:12.801Z,13.60
2018-04-25T22:38:39.648Z,13.60
2018-04-25T22:41:07.288Z,13.60
2018-04-25T22:43:34.091Z,13.60
2018-04-25T22:46:00.939Z,13.50
2018-04-25T22:48:27.809Z,13.30
2018-04-25T22:50:54.646Z,13.10
2018-04-25T22:53:21.503Z,13.20
2018-04-25T22:55:48.455Z,13.20
2018-04-25T22:58:15.407Z,13.30
2018-04-25T23:00:42.253Z,13.40
2018-04-25T23:03:09.131Z,13.40
2018-04-25T23:05:35.994Z,13.10
2018-04-25T23:08:02.927Z,12.50
2018-04-25T23:10:29.760Z,12.30
2018-04-25T23:12:56.618Z,12.20
2018-04-25T23:15:23.534Z,12.30
2018-04-25T23:17:50.436Z,12.20
2018-04-25T23:20:17.694Z,11.90
2018-04-25T23:22:44.734Z,11.90
2018-04-25T23:25:12.017Z,11.80
2018-04-25T23:27:39.036Z,11.80
2018-04-25T23:30:05.978Z,11.80
2018-04-25T23:32:32.840Z,11.80
2018-04-25T23:34:59.809Z,11.80
2018-04-25T23:37:26.728Z,11.80
2018-04-25T23:39:53.649Z,11.90
2018-04-25T23:42:20.540Z,11.90
2018-04-25T23:44:47.803Z,11.90
2018-04-25T23:47:14.679Z,11.90
2018-04-25T23:49:41.936Z,12.00
2018-04-25T23:52:09.258Z,12.30
2018-04-25T23:54:36.100Z,12.30
2018-04-25T23:57:02.957Z,12.50
2018-04-25T23:59:29.832Z,12.50
